Sart-Risbart - Challenge du Brabant Wallon

Le jogging de Sart-Risbart (20.10 km)

Classement complet

le Classement complet se trouve sur : http://www.challengebw.be/
CHALLENGE BRABANT WALLON
LE JOGGING DE SART-RISBART
DISTANCE 20.10 km
samedi 3 septembre 2016
 
Place NOM PRENOM EQUIPE Catégorie Pl/Cat. temps temps/km Vitesse
####                
1 FADOUL TAHA CACE M/40-49 1 01:17:24 03:51 15.58
2 DESCAMPE ARNAUD RIWA M/20-29 1 01:18:05 03:53 15.45
3 DE POORTER HELENE RCB D/20-29 1 01:20:38 04:01 14.96
4 LEESTMANS ADRIEN USBW ROAD TEAM M/30-39 1 01:20:51 04:01 14.92
5 LELIEVRE THIERRY JOGGANS M/40-49 2 01:21:47 04:04 14.75
6 VAN DEN BOSSCHE PHILIPPE   M/40-49 3 01:22:49 04:07 14.56
7 PUTZEYS MATHIEU TRAIN 7 M/30-39 2 01:24:15 04:11 14.31
8 MAGIS ALVARIC RIWA M/20-29 2 01:25:30 04:15 14.11
9 COLLOT JOSEPH ANTILOB M/50-59 1 01:28:08 04:23 13.68
10 DE GHEUS FREDERIC   M/40-49 4 01:28:28 04:24 13.63
11 DEMUYSER CHRISTOPHE SPT WAVRE M/30-39 3 01:29:40 04:28 13.45
12 QUINTELA DANIEL   M/40-49 5 01:31:03 04:32 13.25
13 BODART OLIVIER ANTILOB M/40-49 6 01:31:26 04:33 13.19
14 MOLLE XAVIER   M/20-29 3 01:31:36 04:33 13.17
15 GIGOT JACQUES CEPAL M/40-49 7 01:31:57 04:34 13.12
16 SEGHERS RONY DAC M/40-49 8 01:32:15 04:35 13.07
17 ROTTIER QUENTIN CEPAL M/40-49 9 01:33:28 04:39 12.90
18 RAVYTS ALAIN   M/50-59 2 01:33:36 04:39 12.88
19 DELFOSSE FRANCOIS   M/30-39 4 01:33:41 04:40 12.87
20 HEYI THOMAS   M/30-39 5 01:34:10 04:41 12.81
21 NIEGHO MIKE RIAAC M/20-29 4 01:34:24 04:42 12.78
22 WILLEMS OSKAR   M/15-19 1 01:34:30 04:42 12.76
23 CASTIAUX JOSE VALLEE H M/60-69 1 01:34:36 04:42 12.75
24 GHYSSELINCKX CHRISTOPHE JAMES M/30-39 6 01:35:02 04:44 12.69
25 BARATA HORACIO KURISTO M/50-59 3 01:35:19 04:45 12.65
26 CUPERS DOROTHEE ENJAMBEE D/20-29 2 01:35:45 04:46 12.60
27 BOELS OLIVIER   M/30-39 7 01:35:50 04:46 12.58
28 MICHIELS MURIEL DAC D/30-39 1 01:37:21 04:51 12.39
29 LAUREYS PIERRE ANTILOB M/50-59 4 01:38:14 04:53 12.28
30 SERGYSELS PASCAL JOGGANS M/40-49 10 01:39:14 04:56 12.15
31 DAUTREBANDE GILLES OR WALLONIE M/40-49 11 01:40:03 04:59 12.05
32 LANDELOOS JULIEN   M/30-39 8 01:41:18 05:02 11.91
33 DE SCHAETZEN CEDRIC RCB M/50-59 5 01:41:24 05:03 11.89
34 VAN HORICK BRUNO JCPMF GENAPPE M/30-39 9 01:41:28 05:03 11.89
35 TIREZ ESTELLE CEPAL D/50-59 1 01:42:42 05:07 11.74
36 DEVOS RENE JE COURS A INCOURT M/50-59 6 01:42:48 05:07 11.73
37 HANQUET AXEL RONVAU M/30-39 10 01:43:34 05:09 11.64
38 MEERT FRANK SPVI M/40-49 12 01:43:51 05:10 11.61
39 CAUPAIN FABIAN   M/40-49 13 01:45:09 05:14 11.47
40 HESMANS BENJAMIN   M/20-29 5 01:45:37 05:15 11.42
41 MOES ALAIN RCB M/50-59 7 01:45:45 05:16 11.40
42 RIAHI KOUROSH   M/20-29 6 01:46:13 05:17 11.35
43 BASTAITS SEBASTIEN JET M/30-39 11 01:46:18 05:17 11.35
44 LETELLIER JEAN LUC   M/50-59 8 01:47:04 05:20 11.26
45 SIMEONI BAPTISTE   M/50-59 9 01:47:53 05:22 11.18
46 VALCKE ALAIN   M/40-49 14 01:48:04 05:23 11.16
47 KUYPERS EDDY JAMES M/60-69 2 01:48:08 05:23 11.15
48 MOERMAN JONAS RONVAU M/40-49 15 01:48:13 05:23 11.14
49 MURRAY JONATHAN RCB M/50-59 10 01:48:39 05:24 11.10
50 WATTIER JEREMY   M/30-39 12 01:48:45 05:25 11.09
51 CARRE STEPHANE USBW ROAD TEAM M/40-49 16 01:49:01 05:25 11.06
52 LOUIS SEBASTIEN   M/20-29 7 01:49:23 05:27 11.03
53 FALISE MATHIEU JE COURS A INCOURT M/30-39 13 01:49:39 05:27 11.00
54 LORENT JEAN-CLAUDE JCPMFORP JAUCHE M/50-59 11 01:50:19 05:29 10.93
55 PARMENTIER KARINE NAC D/40-49 1 01:50:54 05:31 10.87
56 VERHEISTRAETEN JOHNNY JET M/50-59 12 01:51:17 05:32 10.84
57 MACHADO ANTONIO RONVAU M/60-69 3 01:51:39 05:33 10.80
58 HOUDMONT ARNAUD RUNATTITUDE M/40-49 17 01:52:03 05:34 10.76
59 MURHUBUBA BIJOU JAMES D/30-39 2 01:52:12 05:35 10.75
60 ALBERT MICHEL RC NAMUR M/50-59 13 01:52:19 05:35 10.74
61 FLAME LAURENCE   D/30-39 3 01:52:33 05:36 10.72
62 VERBEEK JEAN-LUC   M/60-69 4 01:52:39 05:36 10.71
63 LAMBOT STEPHANIE USBW ROAD TEAM D/30-39 4 01:52:53 05:37 10.68
64 BLERO DANIEL JAMES M/40-49 18 01:52:58 05:37 10.68
65 RICHARD YVES RONVAU M/30-39 14 01:53:06 05:38 10.66
66 PARSY DONAT ANTILOB M/40-49 19 01:53:12 05:38 10.65
67 WAUTHIER SOPHIE   D/30-39 5 01:53:20 05:38 10.64
68 COMBLIN MAXIME N/A M/20-29 8 01:53:25 05:39 10.63
69 DELSART JEAN BAPTISTE   M/40-49 20 01:54:10 05:41 10.56
70 CARLUCCIO ALFONSO   M/30-39 15 01:54:16 05:41 10.55
71 SIMON FLORENCE JAMES D/40-49 2 01:54:19 05:41 10.55
72 DE WAHA PIERRE RIWA M/40-49 21 01:54:23 05:41 10.54
73 LE RAY MIKAEL   M/40-49 22 01:54:38 05:42 10.52
74 DULIERE NATHALIE JAMES D/40-49 3 01:54:50 05:43 10.50
75 BROHEZ BRUNO   M/40-49 23 01:54:54 05:43 10.50
76 JACQUES MYRIAM CEPAL D/50-59 2 01:55:08 05:44 10.47
77 SOUMILLION MICHIEL   M/30-39 16 01:55:13 05:44 10.47
78 BARBE SVEN HEISTE BERGLOP M/40-49 24 01:55:30 05:45 10.44
79 POLOME ALAIN   M/50-59 14 01:55:47 05:46 10.42
80 SCOUPPE GERY TTB M/50-59 15 01:56:14 05:47 10.38
81 CIOLACU OLESEA JAMES D/30-39 6 01:57:06 05:50 10.30
82 PIQUARD BENOIT RIWA M/40-49 25 01:57:09 05:50 10.29
83 BOUVIER ARNAUD   M/30-39 17 01:57:10 05:50 10.29
84 COSSARD ALEXANDRA JAMES D/40-49 4 01:58:07 05:53 10.21
85 VINAS JEROME   M/30-39 18 01:58:09 05:53 10.21
86 CHAMPAGNE JEAN-CHRISTOPHE JE COURS A INCOURT M/30-39 19 01:58:13 05:53 10.20
87 D HOOGHE PIERRE KURISTO M/50-59 16 01:58:34 05:54 10.17
88 GRANDCITELLI CYRIL   M/20-29 9 01:58:41 05:54 10.16
89 GILLET NICOLAS   M/40-49 26 01:59:35 05:57 10.09
90 KROKOS ELENE   D/60 &+ 1 01:59:58 05:58 10.05
91 HAINAUT CHARLES   M/50-59 17 02:00:13 05:59 10.03
92 AUDENAERT GENEVIEVE JAMES D/30-39 7 02:00:22 05:59 10.02
93 GROSJEAN ASTRID JAMES D/40-49 5 02:00:25 05:59 10.02
94 JAUMAIN BE JAMES M/40-49 27 02:00:27 06:00 10.01
95 MAGOTTE OLIVIER JAMES M/40-49 28 02:00:29 06:00 10.01
96 LANGELEZ OLIVIER CS DYLE M/40-49 29 02:00:31 06:00 10.01
97 DIAS GIL RCB-GAL M/30-39 20 02:00:33 06:00 10.00
98 SCHARPE CHARLES JE COURS A INCOURT M/50-59 18 02:01:11 06:02 9.95
99 GOWIE CHRISTIAN   M/50-59 19 02:01:14 06:02 9.95
100 LEONE FRANCESCO   M/50-59 20 02:01:17 06:02 9.94
101 LIESSE JACQUELINE JAMES D/60 &+ 2 02:02:44 06:06 9.83
102 PISHOUT CHARLES-EMMANUEL   M/40-49 30 02:03:48 06:10 9.74
103 LAMOTTE RAPHAEL   M/30-39 21 02:04:43 06:12 9.67
104 COWEZ MICHAEL   M/20-29 10 02:04:47 06:12 9.66
105 HOTAT MICHEL JAMES M/40-49 31 02:04:54 06:13 9.66
106 ACETO DOMENICO GERPINNES CO M/60-69 5 02:04:58 06:13 9.65
107 BIARD SOPHIE   D/20-29 3 02:06:15 06:17 9.55
108 VILAIN CHRISTIANE SPT WAVRE D/60 &+ 3 02:07:23 06:20 9.47
109 WERRES MARC   M/50-59 21 02:08:03 06:22 9.42
110 SAUBLENS LAURENT   M/40-49 32 02:09:27 06:26 9.32
111 DUPONT HENRI JAMES M/50-59 22 02:10:18 06:29 9.26
112 ONCLINX PHILIPPE   M/40-49 33 02:11:00 06:31 9.21
113 VANKEERBERGHEN JACQUES JE COURS A INCOURT M/50-59 23 02:11:33 06:33 9.17
114 ROOS JOEL   M/40-49 34 02:11:39 06:33 9.16
115 VAN CANT JOACHIM   M/30-39 22 02:11:58 06:34 9.14
116 VERVLOESEM CORALIE   D/20-29 4 02:12:02 06:34 9.13
117 MARIS WIM JOGGANS M/40-49 35 02:12:15 06:35 9.12
118 LEBEAU ERIC JE COURS A INCOURT M/50-59 24 02:12:59 06:37 9.07
119 DEWIGNE BERNARD CS DYL.G M/50-59 25 02:13:04 06:37 9.06
120 BARBIER YVES USBW ROAD TEAM M/50-59 26 02:13:42 06:39 9.02
121 MIKKELSEN DALIA KURISTO D/50-59 3 02:13:47 06:39 9.01
122 SAUVEGARDE ANNE PASCALE SPT WAVRE D/40-49 6 02:14:00 06:40 9.00
123 SIMONS BENOIT JE COURS A INCOURT M/60-69 6 02:16:35 06:48 8.83
124 VERTONGEN CATHY   D/40-49 7 02:16:37 06:48 8.83
125 ROMERS ERIC JAMES M/50-59 27 02:16:44 06:48 8.82
126 WILLIOT CHANTAL JAMES D/50-59 4 02:16:49 06:48 8.81
127 DE GREZ THIERRY JAMES M/50-59 28 02:16:52 06:49 8.81
128 PAGE THIBAUT JE COURS A INCOURT M/30-39 23 02:18:06 06:52 8.73
129 ETIENNE VINCENT   M/40-49 36 02:18:16 06:53 8.72
130 DAINE ARIANE   D/40-49 8 02:18:20 06:53 8.72
131 AUSSEMS VALERIE   D/30-39 8 02:18:55 06:55 8.68
132 JADOT DAMIEN   M/30-39 24 02:18:59 06:55 8.68
133 LARELLE JULIAN CABW M/15-19 2 02:19:03 06:55 8.67
134 GROGNET SONIA JAMES D/50-59 5 02:20:02 06:58 8.61
135 DELAERE BENEDICTE JAMES D/50-59 6 02:20:05 06:58 8.61
136 POUSSIERE KARIN RONVAU D/40-49 9 02:23:33 07:09 8.40
137 SCHULTE MANUEL RONVAU M/40-49 37 02:23:37 07:09 8.40
138 LETHE VINCENT RONVAU M/50-59 29 02:23:41 07:09 8.39
139 VAN POUCKE VALERIE   D/30-39 9 02:25:00 07:13 8.32
140 WATTIER MELANIE   D/30-39 10 02:26:15 07:17 8.25
141 WOOLARD CATHERINE   D/40-49 10 02:27:56 07:22 8.15
142 STARCK EKKEHARD JAMES M/60-69 7 02:28:49 07:24 8.10
143 PALUMBO EMMANUELLE   D/15-19 1 02:30:39 07:30 8.01
144 GAIGNAGE ISABELLE CABW D/40-49 11 02:30:41 07:30 8.00
145 DELSART MARIE NOELLE UAC D/30-39 11 02:33:46 07:39 7.84
146 FONTAINE BERNARD KURISTO M/50-59 30 02:33:53 07:39 7.84
147 LERAT FLORENCE KURISTO D/30-39 12 02:48:15 08:22 7.17
148 LEMPEREUR JESSICA   D/20-29 5 02:48:17 08:22 7.17
149 MEURICE PHILIPPE KURISTO M/30-39 25 02:48:44 08:24 7.15
150 BLEUS XAVIER KURISTO M/30-39 26 02:48:46 08:24 7.15
151 YSEBOODT BENEDICTE   D/40-49 12 02:48:59 08:24 7.14
152 MICHOTTE MARC KURISTO M/50-59 31 02:49:05 08:25 7.13
153 GHILAIN OLIVIER KURISTO M/30-39 27 02:51:24 08:32 7.04
154 NOEL BEATRICE KURISTO D/30-39 13 02:51:25 08:32 7.04
155 PEREIRA OLINDA IRUN@WATERLOO D/40-49 13 02:59:13 08:55 6.73